createdAt,value
2022-11-28T00:01:35.930Z,-2.40
2022-11-28T00:04:04.167Z,-2.30
2022-11-28T00:06:31.951Z,-2.40
2022-11-28T00:09:01.171Z,-2.40
2022-11-28T00:11:28.686Z,-2.40
2022-11-28T00:13:56.564Z,-2.40
2022-11-28T00:16:25.115Z,-2.40
2022-11-28T00:18:54.593Z,-2.40
2022-11-28T00:21:22.855Z,-2.40
2022-11-28T00:23:50.467Z,-2.40
2022-11-28T00:26:26.924Z,-2.40
2022-11-28T00:28:56.346Z,-2.40
2022-11-28T00:31:26.464Z,-2.40
2022-11-28T00:33:54.388Z,-2.40
2022-11-28T00:36:22.599Z,-2.40
2022-11-28T00:38:50.579Z,-2.40
2022-11-28T00:41:23.538Z,-2.40
2022-11-28T00:43:51.672Z,-2.40
2022-11-28T00:46:20.544Z,-2.40
2022-11-28T00:48:48.227Z,-2.40
2022-11-28T00:51:25.582Z,-2.40
2022-11-28T00:53:54.971Z,-2.40
2022-11-28T00:56:25.600Z,-2.40
2022-11-28T00:58:53.291Z,-2.40
2022-11-28T01:01:28.242Z,-2.40
2022-11-28T01:03:58.409Z,-2.40
2022-11-28T01:06:34.429Z,-2.40
2022-11-28T01:09:05.824Z,-2.40
2022-11-28T01:11:33.242Z,-2.40
2022-11-28T01:14:02.071Z,-2.40
2022-11-28T01:16:30.012Z,-2.40
2022-11-28T01:18:57.462Z,-2.50
2022-11-28T01:21:25.373Z,-2.40
2022-11-28T01:23:52.858Z,-2.40
2022-11-28T01:26:23.105Z,-2.40
2022-11-28T01:28:50.983Z,-2.40
2022-11-28T01:31:22.941Z,-2.40
2022-11-28T01:33:51.085Z,-2.50
2022-11-28T01:36:20.041Z,-2.40
2022-11-28T01:38:48.243Z,-2.40
2022-11-28T01:41:20.294Z,-2.40
2022-11-28T01:44:01.470Z,-2.50
2022-11-28T01:46:30.356Z,-2.40
2022-11-28T01:49:30.426Z,-2.40
2022-11-28T01:52:06.522Z,-2.40
2022-11-28T01:54:36.134Z,-2.40
2022-11-28T01:57:18.436Z,-2.40
2022-11-28T01:59:54.404Z,-2.40
2022-11-28T02:02:31.183Z,-2.30
2022-11-28T02:04:59.925Z,-2.40
2022-11-28T02:07:28.093Z,-2.30
2022-11-28T02:09:55.878Z,-2.30
2022-11-28T02:12:23.660Z,-2.30
2022-11-28T02:15:07.270Z,-2.40
2022-11-28T02:17:50.209Z,-2.40
2022-11-28T02:20:38.100Z,-2.40
2022-11-28T02:23:14.349Z,-2.40
2022-11-28T02:26:00.071Z,-2.40
2022-11-28T02:29:04.310Z,-2.40
2022-11-28T02:32:02.693Z,-2.40
2022-11-28T02:34:51.129Z,-2.40
2022-11-28T02:37:28.023Z,-2.40
2022-11-28T02:40:10.527Z,-2.50
2022-11-28T02:42:45.675Z,-2.50
2022-11-28T02:45:29.049Z,-2.50
2022-11-28T02:48:11.393Z,-2.50
2022-11-28T02:50:46.778Z,-2.50
2022-11-28T02:53:20.081Z,-2.40
2022-11-28T02:55:49.556Z,-2.40
2022-11-28T02:58:18.787Z,-2.40
2022-11-28T03:00:48.005Z,-2.40
2022-11-28T03:03:39.751Z,-2.40
2022-11-28T03:06:34.014Z,-2.40
2022-11-28T03:09:24.363Z,-2.40
2022-11-28T03:12:14.517Z,-2.40
2022-11-28T03:15:03.103Z,-2.40
2022-11-28T03:18:01.245Z,-2.40
2022-11-28T03:20:34.168Z,-2.30
2022-11-28T03:23:33.969Z,-2.30
2022-11-28T03:26:26.910Z,-2.30
2022-11-28T03:29:12.652Z,-2.30
2022-11-28T03:31:48.389Z,-2.30
2022-11-28T03:34:20.244Z,-2.30
2022-11-28T03:37:07.870Z,-2.30
2022-11-28T03:39:39.758Z,-2.30
2022-11-28T03:42:15.152Z,-2.30
2022-11-28T03:45:05.450Z,-2.30
2022-11-28T03:47:36.934Z,-2.30
2022-11-28T03:50:09.477Z,-2.30
2022-11-28T03:52:51.272Z,-2.30
2022-11-28T03:55:23.838Z,-2.30
2022-11-28T03:58:17.858Z,-2.30
2022-11-28T04:01:00.367Z,-2.30
2022-11-28T04:03:46.250Z,-2.30
2022-11-28T04:06:25.612Z,-2.30
2022-11-28T04:09:16.148Z,-2.30
2022-11-28T04:11:54.999Z,-2.30
2022-11-28T04:14:47.256Z,-2.30
2022-11-28T04:17:34.186Z,-2.30
2022-11-28T04:20:34.421Z,-2.30
2022-11-28T04:23:07.091Z,-2.30
2022-11-28T04:25:37.927Z,-2.30
2022-11-28T04:28:15.288Z,-2.30
2022-11-28T04:30:46.005Z,-2.30
2022-11-28T04:33:15.903Z,-2.30
2022-11-28T04:35:50.044Z,-2.20
2022-11-28T04:38:18.229Z,-2.30
2022-11-28T04:40:52.297Z,-2.30
2022-11-28T04:43:34.774Z,-2.30
2022-11-28T04:46:27.309Z,-2.30
2022-11-28T04:48:54.906Z,-2.30
2022-11-28T04:51:43.080Z,-2.20
2022-11-28T04:54:16.364Z,-2.30
2022-11-28T04:56:52.868Z,-2.30
2022-11-28T04:59:22.335Z,-2.30
2022-11-28T05:01:51.406Z,-2.30
2022-11-28T05:04:19.281Z,-2.30
2022-11-28T05:06:46.682Z,-2.30
2022-11-28T05:09:14.119Z,-2.30
2022-11-28T05:11:41.477Z,-2.30
2022-11-28T05:14:08.778Z,-2.30
2022-11-28T05:16:36.078Z,-2.30
2022-11-28T05:19:03.661Z,-2.30
2022-11-28T05:21:30.993Z,-2.40
2022-11-28T05:23:58.725Z,-2.40
2022-11-28T05:26:26.549Z,-2.40
2022-11-28T05:28:54.428Z,-2.40
2022-11-28T05:31:22.136Z,-2.40
2022-11-28T05:33:49.581Z,-2.30
2022-11-28T05:36:18.344Z,-2.40
2022-11-28T05:38:45.939Z,-2.30
2022-11-28T05:41:23.670Z,-2.30
2022-11-28T05:43:51.720Z,-2.40
2022-11-28T05:46:19.547Z,-2.30
2022-11-28T05:48:47.399Z,-2.30
2022-11-28T05:51:14.736Z,-2.30
2022-11-28T05:53:42.396Z,-2.30
2022-11-28T05:56:15.958Z,-2.30
2022-11-28T05:58:43.963Z,-2.30
2022-11-28T06:01:16.068Z,-2.30
2022-11-28T06:03:43.899Z,-2.30
2022-11-28T06:06:16.728Z,-2.30
2022-11-28T06:08:45.455Z,-2.30
2022-11-28T06:11:15.087Z,-2.40
2022-11-28T06:13:44.148Z,-2.30
2022-11-28T06:16:14.063Z,-2.30
2022-11-28T06:18:42.136Z,-2.30
2022-11-28T06:21:11.312Z,-2.40
2022-11-28T06:23:39.230Z,-2.40
2022-11-28T06:26:09.096Z,-2.40
2022-11-28T06:28:37.134Z,-2.40
2022-11-28T06:31:04.923Z,-2.30
2022-11-28T06:33:32.254Z,-2.30
2022-11-28T06:36:04.349Z,-2.30
2022-11-28T06:38:31.736Z,-2.30
2022-11-28T06:41:00.533Z,-2.30
2022-11-28T06:43:28.161Z,-2.30
2022-11-28T06:45:55.795Z,-2.30
2022-11-28T06:48:23.449Z,-2.30
2022-11-28T06:50:51.727Z,-2.30
2022-11-28T06:53:19.428Z,-2.20
2022-11-28T06:55:47.801Z,-2.30
2022-11-28T06:58:15.469Z,-2.30
2022-11-28T07:00:42.925Z,-2.20
2022-11-28T07:03:10.295Z,-2.30
2022-11-28T07:05:37.745Z,-2.30
2022-11-28T07:08:05.424Z,-2.30
2022-11-28T07:10:33.021Z,-2.30
2022-11-28T07:13:05.428Z,-2.20
2022-11-28T07:15:33.377Z,-2.20
2022-11-28T07:18:01.391Z,-2.20
2022-11-28T07:20:28.698Z,-2.20
2022-11-28T07:22:56.107Z,-2.10
2022-11-28T07:25:23.451Z,-2.20
2022-11-28T07:27:50.650Z,-2.10
2022-11-28T07:30:18.097Z,-2.10
2022-11-28T07:32:45.459Z,-2.10
2022-11-28T07:35:12.880Z,-2.10
2022-11-28T07:37:40.172Z,-2.00
2022-11-28T07:40:08.081Z,-2.00
2022-11-28T07:42:35.707Z,-2.00
2022-11-28T07:45:03.019Z,-1.90
2022-11-28T07:47:30.328Z,-2.00
2022-11-28T07:49:57.732Z,-1.90
2022-11-28T07:52:25.027Z,-1.90
2022-11-28T07:54:52.348Z,-1.80
2022-11-28T07:57:19.750Z,-1.90
2022-11-28T07:59:47.042Z,-1.80
2022-11-28T08:02:14.581Z,-1.80
2022-11-28T08:04:48.355Z,-1.80
2022-11-28T08:07:17.833Z,-1.80
2022-11-28T08:09:45.511Z,-1.80
2022-11-28T08:12:12.992Z,-1.70
2022-11-28T08:14:40.722Z,-1.70
2022-11-28T08:17:08.571Z,-1.80
2022-11-28T08:19:36.574Z,-1.80
2022-11-28T08:22:03.981Z,-1.80
2022-11-28T08:24:31.353Z,-1.80
2022-11-28T08:26:58.669Z,-1.80
2022-11-28T08:29:26.176Z,-1.80
2022-11-28T08:31:53.631Z,-1.80
2022-11-28T08:34:21.014Z,-1.60
2022-11-28T08:36:49.371Z,-1.60
2022-11-28T08:39:25.193Z,-1.60
2022-11-28T08:42:00.074Z,-1.60
2022-11-28T08:44:30.230Z,-1.60
2022-11-28T08:46:57.955Z,-1.60
2022-11-28T08:49:25.350Z,-1.60
2022-11-28T08:51:52.776Z,-1.50
2022-11-28T08:54:21.076Z,-1.60
2022-11-28T08:56:49.656Z,-1.40
2022-11-28T08:59:17.112Z,-1.30
2022-11-28T09:01:44.590Z,-1.20
2022-11-28T09:04:12.110Z,-1.10
2022-11-28T09:06:40.375Z,-1.10
2022-11-28T09:09:09.314Z,-1.10
2022-11-28T09:11:37.198Z,-1.00
2022-11-28T09:14:04.727Z,-1.10
2022-11-28T09:16:32.117Z,-1.00
2022-11-28T09:18:59.849Z,-1.00
2022-11-28T09:21:27.576Z,-1.00
2022-11-28T09:23:56.562Z,-1.00
2022-11-28T09:26:25.648Z,-1.10
2022-11-28T09:28:54.268Z,-1.00
2022-11-28T09:31:21.803Z,-1.00
2022-11-28T09:33:51.913Z,-1.00
2022-11-28T09:36:22.018Z,-1.10
2022-11-28T09:38:50.082Z,-1.10
2022-11-28T09:41:17.356Z,-1.00
2022-11-28T09:43:49.657Z,-0.90
2022-11-28T09:46:28.179Z,-0.90
2022-11-28T09:49:00.897Z,-0.80
2022-11-28T09:51:33.967Z,-0.80
2022-11-28T09:54:13.953Z,-0.80
2022-11-28T09:56:41.497Z,-0.60
2022-11-28T09:59:29.467Z,-0.40
2022-11-28T10:02:03.306Z,-0.10
2022-11-28T10:05:03.733Z,0.00
2022-11-28T10:07:56.292Z,0.10
2022-11-28T10:10:29.324Z,0.20
2022-11-28T10:13:22.285Z,0.30
2022-11-28T10:16:14.801Z,0.20
2022-11-28T10:18:51.040Z,0.20
2022-11-28T10:21:18.267Z,0.10
2022-11-28T10:23:47.312Z,0.10
2022-11-28T10:26:41.294Z,0.20
2022-11-28T10:29:29.890Z,0.20
2022-11-28T10:32:04.868Z,0.20
2022-11-28T10:34:37.207Z,0.10
2022-11-28T10:37:11.687Z,0.00
2022-11-28T10:39:44.268Z,-0.10
2022-11-28T10:42:26.905Z,-0.30
2022-11-28T10:45:14.342Z,-0.30
2022-11-28T10:48:07.486Z,-0.20
2022-11-28T10:51:38.802Z,-0.10
2022-11-28T10:54:47.310Z,-0.20
2022-11-28T10:57:21.943Z,-0.20
2022-11-28T10:59:52.057Z,-0.20
2022-11-28T11:02:38.356Z,-0.50
2022-11-28T11:05:08.416Z,-0.60
2022-11-28T11:07:35.964Z,-0.70
2022-11-28T11:10:17.461Z,-0.70
2022-11-28T11:12:45.158Z,-0.90
2022-11-28T11:15:32.987Z,-0.80
2022-11-28T11:18:25.550Z,-0.80
2022-11-28T11:21:08.115Z,-0.80
2022-11-28T11:23:38.443Z,-0.80
2022-11-28T11:26:10.619Z,-0.90
2022-11-28T11:28:51.245Z,-0.80
2022-11-28T11:31:27.977Z,-0.80
2022-11-28T11:34:15.077Z,-0.80
2022-11-28T11:36:42.480Z,-0.80
2022-11-28T11:39:15.080Z,-0.70
2022-11-28T11:41:44.842Z,-0.70
2022-11-28T11:44:14.922Z,-0.70
2022-11-28T11:46:58.922Z,-0.70
2022-11-28T11:49:42.192Z,-0.70
2022-11-28T11:52:13.467Z,-0.60
2022-11-28T11:54:58.050Z,-0.60
2022-11-28T11:57:37.357Z,-0.60
2022-11-28T12:00:11.184Z,-0.70
2022-11-28T12:03:00.988Z,-0.70
2022-11-28T12:05:59.056Z,-0.60
2022-11-28T12:08:36.564Z,-0.50
2022-11-28T12:11:25.583Z,-0.50
2022-11-28T12:13:54.530Z,-0.50
2022-11-28T12:16:33.978Z,-0.50
2022-11-28T12:19:13.275Z,-0.50
2022-11-28T12:21:54.857Z,-0.50
2022-11-28T12:24:46.905Z,-0.50
2022-11-28T12:28:04.782Z,-0.50
2022-11-28T12:31:01.634Z,-0.50
2022-11-28T12:34:11.998Z,-0.50
2022-11-28T12:36:44.060Z,-0.40
2022-11-28T12:39:37.487Z,-0.40
2022-11-28T12:42:39.350Z,-0.50
2022-11-28T12:45:29.672Z,-0.50
2022-11-28T12:48:07.093Z,-0.50
2022-11-28T12:50:47.662Z,-0.60
2022-11-28T12:53:55.230Z,-0.60
2022-11-28T12:56:28.584Z,-0.60
2022-11-28T12:59:09.834Z,-0.60
2022-11-28T13:02:26.613Z,-0.60
2022-11-28T13:05:06.059Z,-0.60
2022-11-28T13:07:43.628Z,-0.60
2022-11-28T13:10:25.187Z,-0.50
2022-11-28T13:13:34.709Z,-0.60
2022-11-28T13:16:14.658Z,-0.50
2022-11-28T13:19:10.833Z,-0.60
2022-11-28T13:21:49.700Z,-0.60
2022-11-28T13:24:20.174Z,-0.60
2022-11-28T13:27:01.233Z,-0.60
2022-11-28T13:29:58.437Z,-0.60
2022-11-28T13:32:49.903Z,-0.60
2022-11-28T13:35:19.338Z,-0.60
2022-11-28T13:41:05.957Z,-0.60
2022-11-28T13:43:52.843Z,-0.60
2022-11-28T13:46:20.786Z,-0.60
2022-11-28T13:51:39.346Z,-0.60
2022-11-28T13:54:21.489Z,-0.60
2022-11-28T13:57:12.078Z,-0.60
2022-11-28T13:59:39.886Z,-0.60
2022-11-28T14:02:23.425Z,-0.60
2022-11-28T14:04:51.260Z,-0.60
2022-11-28T14:07:33.201Z,-0.70
2022-11-28T14:10:10.621Z,-0.60
2022-11-28T14:13:13.667Z,-0.60
2022-11-28T14:15:46.741Z,-0.60
2022-11-28T14:18:58.223Z,-0.60
2022-11-28T14:21:53.601Z,-0.60
2022-11-28T14:24:47.748Z,-0.60
2022-11-28T14:27:28.374Z,-0.60
2022-11-28T14:29:57.657Z,-0.60
2022-11-28T14:32:34.400Z,-0.60
2022-11-28T14:35:02.777Z,-0.60
2022-11-28T14:37:36.033Z,-0.60
2022-11-28T14:40:04.221Z,-0.60
2022-11-28T14:45:44.028Z,-0.60
2022-11-28T14:48:23.763Z,-0.60
2022-11-28T14:50:59.284Z,-0.60
2022-11-28T14:53:37.255Z,-0.70
2022-11-28T14:56:31.023Z,-0.60
2022-11-28T14:59:02.720Z,-0.60
2022-11-28T15:02:00.929Z,-0.60
2022-11-28T15:04:49.260Z,-0.60
2022-11-28T15:07:28.224Z,-0.60
2022-11-28T15:10:09.197Z,-0.60
2022-11-28T15:13:04.854Z,-0.60
2022-11-28T15:15:33.011Z,-0.60
2022-11-28T15:18:02.665Z,-0.60
2022-11-28T15:20:29.965Z,-0.60
2022-11-28T15:22:57.259Z,-0.70
2022-11-28T15:25:29.964Z,-0.60
2022-11-28T15:27:58.358Z,-0.70
2022-11-28T15:30:27.196Z,-0.60
2022-11-28T15:32:59.736Z,-0.60
2022-11-28T15:35:28.889Z,-0.70
2022-11-28T15:37:58.386Z,-0.60
2022-11-28T15:40:37.288Z,-0.70
2022-11-28T15:43:09.591Z,-0.60
2022-11-28T15:45:42.551Z,-0.60
2022-11-28T15:48:47.808Z,-0.70
2022-11-28T15:51:29.984Z,-0.60
2022-11-28T15:54:00.103Z,-0.60
2022-11-28T15:56:28.027Z,-0.60
2022-11-28T15:58:55.667Z,-0.60
2022-11-28T16:01:28.039Z,-0.60
2022-11-28T16:04:05.631Z,-0.60
2022-11-28T16:06:38.830Z,-0.60
2022-11-28T16:09:28.593Z,-0.60
2022-11-28T16:11:55.803Z,-0.60
2022-11-28T16:14:30.908Z,-0.60
2022-11-28T16:17:01.049Z,-0.60
2022-11-28T16:19:34.428Z,-0.60
2022-11-28T16:22:17.619Z,-0.60
2022-11-28T16:24:50.536Z,-0.60
2022-11-28T16:27:45.949Z,-0.60
2022-11-28T16:30:28.217Z,-0.60
2022-11-28T16:32:57.051Z,-0.60
2022-11-28T16:35:33.418Z,-0.60
2022-11-28T16:38:06.709Z,-0.60
2022-11-28T16:40:34.467Z,-0.60
2022-11-28T16:43:05.502Z,-0.60
2022-11-28T16:45:34.955Z,-0.60
2022-11-28T16:48:15.487Z,-0.60
2022-11-28T16:51:03.311Z,-0.60
2022-11-28T16:53:43.979Z,-0.50
2022-11-28T16:56:44.087Z,-0.50
2022-11-28T16:59:16.941Z,-0.50
2022-11-28T17:01:46.600Z,-0.50
2022-11-28T17:04:28.295Z,-0.50
2022-11-28T17:06:58.579Z,-0.50
2022-11-28T17:09:25.964Z,-0.60
2022-11-28T17:12:05.577Z,-0.60
2022-11-28T17:14:33.348Z,-0.50
2022-11-28T17:17:03.560Z,-0.60
2022-11-28T17:19:30.992Z,-0.50
2022-11-28T17:21:59.832Z,-0.50
2022-11-28T17:24:32.198Z,-0.50
2022-11-28T17:26:59.614Z,-0.50
2022-11-28T17:29:28.125Z,-0.50
2022-11-28T17:31:59.133Z,-0.50
2022-11-28T17:34:31.407Z,-0.60
2022-11-28T17:37:00.038Z,-0.50
2022-11-28T17:39:27.893Z,-0.60
2022-11-28T17:41:57.159Z,-0.50
2022-11-28T17:44:27.426Z,-0.50
2022-11-28T17:46:56.156Z,-0.50
2022-11-28T17:49:24.675Z,-0.50
2022-11-28T17:51:53.344Z,-0.50
2022-11-28T17:54:22.741Z,-0.50
2022-11-28T17:56:51.850Z,-0.50
2022-11-28T17:59:22.128Z,-0.50
2022-11-28T18:01:49.748Z,-0.50
2022-11-28T18:04:17.189Z,-0.50
2022-11-28T18:06:48.257Z,-0.50
2022-11-28T18:09:16.199Z,-0.50
2022-11-28T18:11:45.213Z,-0.50
2022-11-28T18:14:12.882Z,-0.50
2022-11-28T18:16:42.353Z,-0.60
2022-11-28T18:19:09.876Z,-0.50
2022-11-28T18:21:37.355Z,-0.50
2022-11-28T18:24:05.038Z,-0.50
2022-11-28T18:26:32.347Z,-0.50
2022-11-28T18:29:00.557Z,-0.50
2022-11-28T18:31:29.756Z,-0.50
2022-11-28T18:34:02.096Z,-0.50
2022-11-28T18:36:32.352Z,-0.50
2022-11-28T18:39:04.412Z,-0.50
2022-11-28T18:41:33.027Z,-0.50
2022-11-28T18:44:04.663Z,-0.50
2022-11-28T18:46:34.797Z,-0.40
2022-11-28T18:49:04.360Z,-0.50
2022-11-28T18:51:34.946Z,-0.50
2022-11-28T18:54:07.642Z,-0.40
2022-11-28T18:56:35.860Z,-0.40
2022-11-28T18:59:03.615Z,-0.40
2022-11-28T19:01:35.978Z,-0.50
2022-11-28T19:04:11.150Z,-0.40
2022-11-28T19:06:40.607Z,-0.50
2022-11-28T19:09:12.459Z,-0.50
2022-11-28T19:11:41.699Z,-0.40
2022-11-28T19:14:16.249Z,-0.50
2022-11-28T19:16:45.579Z,-0.50
2022-11-28T19:19:14.055Z,-0.50
2022-11-28T19:21:42.162Z,-0.40
2022-11-28T19:24:12.661Z,-0.40
2022-11-28T19:26:40.988Z,-0.40
2022-11-28T19:29:08.536Z,-0.40
2022-11-28T19:31:40.194Z,-0.40
2022-11-28T19:34:19.141Z,-0.40
2022-11-28T19:36:49.416Z,-0.40
2022-11-28T19:39:22.775Z,-0.40
2022-11-28T19:41:52.315Z,-0.40
2022-11-28T19:44:22.219Z,-0.40
2022-11-28T19:46:50.498Z,-0.40
2022-11-28T19:49:24.967Z,-0.40
2022-11-28T19:51:54.601Z,-0.30
2022-11-28T19:54:22.917Z,-0.40
2022-11-28T19:56:50.971Z,-0.40
2022-11-28T19:59:19.562Z,-0.40
2022-11-28T20:01:51.048Z,-0.30
2022-11-28T20:04:21.647Z,-0.30
2022-11-28T20:06:51.709Z,-0.30
2022-11-28T20:09:21.316Z,-0.30
2022-11-28T20:11:50.354Z,-0.30
2022-11-28T20:14:20.003Z,-0.30
2022-11-28T20:16:48.770Z,-0.30
2022-11-28T20:19:18.728Z,-0.30
2022-11-28T20:21:46.986Z,-0.30
2022-11-28T20:24:15.499Z,-0.30
2022-11-28T20:26:44.981Z,-0.30
2022-11-28T20:29:15.484Z,-0.30
2022-11-28T20:31:47.575Z,-0.30
2022-11-28T20:34:17.291Z,-0.30
2022-11-28T20:36:45.369Z,-0.20
2022-11-28T20:39:13.258Z,-0.30
2022-11-28T20:41:40.704Z,-0.30
2022-11-28T20:44:08.517Z,-0.30
2022-11-28T20:46:35.963Z,-0.20
2022-11-28T20:49:06.024Z,-0.20
2022-11-28T20:51:35.230Z,-0.20
2022-11-28T20:54:05.125Z,-0.30
2022-11-28T20:56:51.568Z,-0.20
2022-11-28T20:59:22.340Z,-0.20
2022-11-28T21:01:49.769Z,-0.30
2022-11-28T21:04:18.413Z,-0.20
2022-11-28T21:06:47.850Z,-0.30
2022-11-28T21:09:15.848Z,-0.20
2022-11-28T21:11:56.784Z,-0.20
2022-11-28T21:14:26.147Z,-0.20
2022-11-28T21:16:53.563Z,-0.20
2022-11-28T21:19:21.189Z,-0.20
2022-11-28T21:21:48.849Z,-0.20
2022-11-28T21:24:16.193Z,-0.20
2022-11-28T21:26:49.618Z,-0.20
2022-11-28T21:29:23.244Z,-0.20
2022-11-28T21:31:50.986Z,-0.30
2022-11-28T21:34:19.718Z,-0.30
2022-11-28T21:36:48.162Z,-0.20
2022-11-28T21:39:19.061Z,-0.20
2022-11-28T21:41:46.742Z,-0.20
2022-11-28T21:44:14.412Z,-0.20
2022-11-28T21:46:41.836Z,-0.20
2022-11-28T21:49:09.246Z,-0.20
2022-11-28T21:51:36.713Z,-0.20
2022-11-28T21:54:04.197Z,-0.20
2022-11-28T21:56:31.650Z,-0.20
2022-11-28T21:58:59.336Z,-0.20
2022-11-28T22:01:26.758Z,-0.20
2022-11-28T22:03:59.025Z,-0.20
2022-11-28T22:06:29.913Z,-0.20
2022-11-28T22:08:57.340Z,-0.20
2022-11-28T22:11:25.024Z,-0.20
2022-11-28T22:13:53.232Z,-0.20
2022-11-28T22:16:23.715Z,-0.20
2022-11-28T22:18:52.745Z,-0.20
2022-11-28T22:24:08.361Z,-0.20
2022-11-28T22:26:35.846Z,-0.20
2022-11-28T22:29:04.353Z,-0.20
2022-11-28T22:31:32.100Z,-0.20
2022-11-28T22:33:59.542Z,-0.20
2022-11-28T22:36:26.996Z,-0.20
2022-11-28T22:38:56.539Z,-0.10
2022-11-28T22:41:28.878Z,-0.10
2022-11-28T22:44:00.041Z,-0.10
2022-11-28T22:46:27.529Z,-0.10
2022-11-28T22:48:54.895Z,-0.20
2022-11-28T22:51:25.605Z,-0.10
2022-11-28T22:53:57.754Z,-0.10
2022-11-28T22:56:25.791Z,-0.10
2022-11-28T22:58:53.710Z,-0.10
2022-11-28T23:01:29.118Z,-0.10
2022-11-28T23:03:56.754Z,-0.10
2022-11-28T23:06:27.400Z,-0.10
2022-11-28T23:08:56.302Z,-0.10
2022-11-28T23:11:26.454Z,-0.10
2022-11-28T23:13:54.273Z,-0.10
2022-11-28T23:16:36.464Z,-0.10
2022-11-28T23:19:12.543Z,-0.10
2022-11-28T23:21:41.992Z,0.00
2022-11-28T23:24:17.016Z,0.00
2022-11-28T23:26:45.114Z,-0.10
2022-11-28T23:29:12.960Z,0.00
2022-11-28T23:31:42.323Z,0.00
2022-11-28T23:34:11.000Z,0.00
2022-11-28T23:36:42.811Z,0.00
2022-11-28T23:39:16.624Z,0.00
2022-11-28T23:41:44.628Z,0.00
2022-11-28T23:44:13.383Z,0.00
2022-11-28T23:46:41.889Z,0.00
2022-11-28T23:49:12.047Z,0.00
2022-11-28T23:51:43.226Z,0.00
2022-11-28T23:54:11.622Z,0.00
2022-11-28T23:56:40.355Z,0.00
2022-11-28T23:59:10.286Z,0.00
